sensor_id;sensor_type;location;lat;lon;timestamp;temperature;humidity
35127;DHT22;21300;52.006;5.798;2023-08-07T00:00:11;15.50;97.70
35127;DHT22;21300;52.006;5.798;2023-08-07T00:02:37;15.50;97.70
35127;DHT22;21300;52.006;5.798;2023-08-07T00:05:03;15.50;97.70
35127;DHT22;21300;52.006;5.798;2023-08-07T00:07:28;15.50;97.70
35127;DHT22;21300;52.006;5.798;2023-08-07T00:09:54;15.50;97.80
35127;DHT22;21300;52.006;5.798;2023-08-07T00:12:19;15.50;97.80
35127;DHT22;21300;52.006;5.798;2023-08-07T00:14:47;15.50;97.70
35127;DHT22;21300;52.006;5.798;2023-08-07T00:17:13;15.50;97.80
35127;DHT22;21300;52.006;5.798;2023-08-07T00:19:38;15.50;97.80
35127;DHT22;21300;52.006;5.798;2023-08-07T00:22:04;15.50;97.80
35127;DHT22;21300;52.006;5.798;2023-08-07T00:24:30;15.40;97.80
35127;DHT22;21300;52.006;5.798;2023-08-07T00:29:40;15.40;97.80
35127;DHT22;21300;52.006;5.798;2023-08-07T00:32:06;15.40;97.70
35127;DHT22;21300;52.006;5.798;2023-08-07T00:34:32;15.40;97.80
35127;DHT22;21300;52.006;5.798;2023-08-07T00:36:57;15.40;97.80
35127;DHT22;21300;52.006;5.798;2023-08-07T00:39:24;15.40;97.80
35127;DHT22;21300;52.006;5.798;2023-08-07T00:41:49;15.40;97.70
35127;DHT22;21300;52.006;5.798;2023-08-07T00:44:15;15.40;97.70
35127;DHT22;21300;52.006;5.798;2023-08-07T00:46:41;15.40;97.80
35127;DHT22;21300;52.006;5.798;2023-08-07T00:49:08;15.40;97.80
35127;DHT22;21300;52.006;5.798;2023-08-07T00:51:35;15.40;97.80
35127;DHT22;21300;52.006;5.798;2023-08-07T00:54:03;15.30;97.80
35127;DHT22;21300;52.006;5.798;2023-08-07T00:56:29;15.30;97.80
35127;DHT22;21300;52.006;5.798;2023-08-07T00:58:55;15.30;97.80
35127;DHT22;21300;52.006;5.798;2023-08-07T01:01:21;15.30;97.80
35127;DHT22;21300;52.006;5.798;2023-08-07T01:03:46;15.30;97.80
35127;DHT22;21300;52.006;5.798;2023-08-07T01:06:12;15.30;97.80
35127;DHT22;21300;52.006;5.798;2023-08-07T01:08:38;15.30;97.80
35127;DHT22;21300;52.006;5.798;2023-08-07T01:11:18;15.30;97.80
35127;DHT22;21300;52.006;5.798;2023-08-07T01:17:00;15.30;97.70
35127;DHT22;21300;52.006;5.798;2023-08-07T01:19:28;15.30;97.80
35127;DHT22;21300;52.006;5.798;2023-08-07T01:24:32;15.30;97.70
35127;DHT22;21300;52.006;5.798;2023-08-07T01:27:02;15.30;97.70
35127;DHT22;21300;52.006;5.798;2023-08-07T01:29:36;15.20;97.70
35127;DHT22;21300;52.006;5.798;2023-08-07T01:32:05;15.30;97.70
35127;DHT22;21300;52.006;5.798;2023-08-07T01:34:33;15.30;97.70
35127;DHT22;21300;52.006;5.798;2023-08-07T01:37:01;15.20;97.70
35127;DHT22;21300;52.006;5.798;2023-08-07T01:39:28;15.20;97.70
35127;DHT22;21300;52.006;5.798;2023-08-07T01:41:55;15.20;97.70
35127;DHT22;21300;52.006;5.798;2023-08-07T01:44:21;15.20;97.70
35127;DHT22;21300;52.006;5.798;2023-08-07T01:46:46;15.20;97.70
35127;DHT22;21300;52.006;5.798;2023-08-07T01:49:12;15.20;97.70
35127;DHT22;21300;52.006;5.798;2023-08-07T01:51:37;15.20;97.70
35127;DHT22;21300;52.006;5.798;2023-08-07T01:54:03;15.20;97.70
35127;DHT22;21300;52.006;5.798;2023-08-07T01:56:29;15.20;97.70
35127;DHT22;21300;52.006;5.798;2023-08-07T01:58:54;15.20;97.70
35127;DHT22;21300;52.006;5.798;2023-08-07T02:01:20;15.20;97.70
35127;DHT22;21300;52.006;5.798;2023-08-07T02:03:45;15.20;97.70
35127;DHT22;21300;52.006;5.798;2023-08-07T02:06:11;15.20;97.70
35127;DHT22;21300;52.006;5.798;2023-08-07T02:08:36;15.20;97.70
35127;DHT22;21300;52.006;5.798;2023-08-07T02:11:02;15.20;97.70
35127;DHT22;21300;52.006;5.798;2023-08-07T02:13:28;15.20;97.70
35127;DHT22;21300;52.006;5.798;2023-08-07T02:15:53;15.20;97.70
35127;DHT22;21300;52.006;5.798;2023-08-07T02:18:19;15.20;97.70
35127;DHT22;21300;52.006;5.798;2023-08-07T02:20:44;15.10;97.60
35127;DHT22;21300;52.006;5.798;2023-08-07T02:23:11;15.20;97.70
35127;DHT22;21300;52.006;5.798;2023-08-07T02:25:37;15.10;97.60
35127;DHT22;21300;52.006;5.798;2023-08-07T02:28:02;15.20;97.70
35127;DHT22;21300;52.006;5.798;2023-08-07T02:30:28;15.20;97.60
35127;DHT22;21300;52.006;5.798;2023-08-07T02:32:53;15.20;97.60
35127;DHT22;21300;52.006;5.798;2023-08-07T02:35:19;15.20;97.60
35127;DHT22;21300;52.006;5.798;2023-08-07T02:37:44;15.20;97.60
35127;DHT22;21300;52.006;5.798;2023-08-07T02:40:10;15.10;97.60
35127;DHT22;21300;52.006;5.798;2023-08-07T02:42:38;15.10;97.60
35127;DHT22;21300;52.006;5.798;2023-08-07T02:45:04;15.10;97.60
35127;DHT22;21300;52.006;5.798;2023-08-07T02:47:30;15.20;97.60
35127;DHT22;21300;52.006;5.798;2023-08-07T02:49:56;15.10;97.50
35127;DHT22;21300;52.006;5.798;2023-08-07T02:52:21;15.10;97.60
35127;DHT22;21300;52.006;5.798;2023-08-07T02:54:47;15.10;97.60
35127;DHT22;21300;52.006;5.798;2023-08-07T02:57:12;15.10;97.60
35127;DHT22;21300;52.006;5.798;2023-08-07T02:59:38;15.20;97.60
35127;DHT22;21300;52.006;5.798;2023-08-07T03:02:04;15.10;97.60
35127;DHT22;21300;52.006;5.798;2023-08-07T03:04:29;15.10;97.50
35127;DHT22;21300;52.006;5.798;2023-08-07T03:06:55;15.10;97.60
35127;DHT22;21300;52.006;5.798;2023-08-07T03:09:20;15.10;97.60
35127;DHT22;21300;52.006;5.798;2023-08-07T03:11:46;15.10;97.60
35127;DHT22;21300;52.006;5.798;2023-08-07T03:14:11;15.10;97.60
35127;DHT22;21300;52.006;5.798;2023-08-07T03:16:37;15.10;97.60
35127;DHT22;21300;52.006;5.798;2023-08-07T03:19:03;15.10;97.60
35127;DHT22;21300;52.006;5.798;2023-08-07T03:21:28;15.10;97.50
35127;DHT22;21300;52.006;5.798;2023-08-07T03:23:54;15.10;97.50
35127;DHT22;21300;52.006;5.798;2023-08-07T03:26:19;15.10;97.60
35127;DHT22;21300;52.006;5.798;2023-08-07T03:28:45;15.10;97.60
35127;DHT22;21300;52.006;5.798;2023-08-07T03:31:14;15.10;97.60
35127;DHT22;21300;52.006;5.798;2023-08-07T03:33:40;15.10;97.60
35127;DHT22;21300;52.006;5.798;2023-08-07T03:36:05;15.10;97.60
35127;DHT22;21300;52.006;5.798;2023-08-07T03:38:31;15.10;97.60
35127;DHT22;21300;52.006;5.798;2023-08-07T03:40:56;15.10;97.50
35127;DHT22;21300;52.006;5.798;2023-08-07T03:43:22;15.10;97.50
35127;DHT22;21300;52.006;5.798;2023-08-07T03:45:47;15.10;97.60
35127;DHT22;21300;52.006;5.798;2023-08-07T03:48:13;15.10;97.50
35127;DHT22;21300;52.006;5.798;2023-08-07T03:50:38;15.00;97.50
35127;DHT22;21300;52.006;5.798;2023-08-07T03:53:05;15.00;97.50
35127;DHT22;21300;52.006;5.798;2023-08-07T03:55:32;15.00;97.50
35127;DHT22;21300;52.006;5.798;2023-08-07T03:57:58;15.00;97.50
35127;DHT22;21300;52.006;5.798;2023-08-07T04:00:23;15.00;97.50
35127;DHT22;21300;52.006;5.798;2023-08-07T04:02:49;15.00;97.50
35127;DHT22;21300;52.006;5.798;2023-08-07T04:05:14;15.00;97.50
35127;DHT22;21300;52.006;5.798;2023-08-07T04:07:40;15.00;97.60
35127;DHT22;21300;52.006;5.798;2023-08-07T04:10:06;15.00;97.50
35127;DHT22;21300;52.006;5.798;2023-08-07T04:12:31;15.00;97.50
35127;DHT22;21300;52.006;5.798;2023-08-07T04:14:57;15.00;97.50
35127;DHT22;21300;52.006;5.798;2023-08-07T04:17:23;14.90;97.80
35127;DHT22;21300;52.006;5.798;2023-08-07T04:19:48;14.80;97.90
35127;DHT22;21300;52.006;5.798;2023-08-07T04:22:14;14.80;98.10
35127;DHT22;21300;52.006;5.798;2023-08-07T04:24:39;14.60;98.60
35127;DHT22;21300;52.006;5.798;2023-08-07T04:27:05;14.60;98.90
35127;DHT22;21300;52.006;5.798;2023-08-07T04:29:31;14.60;98.70
35127;DHT22;21300;52.006;5.798;2023-08-07T04:31:56;14.40;99.00
35127;DHT22;21300;52.006;5.798;2023-08-07T04:34:22;14.40;99.00
35127;DHT22;21300;52.006;5.798;2023-08-07T04:36:47;14.40;99.50
35127;DHT22;21300;52.006;5.798;2023-08-07T04:39:13;14.30;99.30
35127;DHT22;21300;52.006;5.798;2023-08-07T04:41:39;14.40;99.50
35127;DHT22;21300;52.006;5.798;2023-08-07T04:44:04;14.30;99.80
35127;DHT22;21300;52.006;5.798;2023-08-07T04:46:30;14.30;99.60
35127;DHT22;21300;52.006;5.798;2023-08-07T04:48:56;14.30;99.80
35127;DHT22;21300;52.006;5.798;2023-08-07T04:51:22;14.40;99.50
35127;DHT22;21300;52.006;5.798;2023-08-07T04:53:48;14.40;99.40
35127;DHT22;21300;52.006;5.798;2023-08-07T04:56:16;14.50;99.30
35127;DHT22;21300;52.006;5.798;2023-08-07T04:58:42;14.50;99.20
35127;DHT22;21300;52.006;5.798;2023-08-07T05:01:08;14.60;99.10
35127;DHT22;21300;52.006;5.798;2023-08-07T05:03:35;14.60;99.00
35127;DHT22;21300;52.006;5.798;2023-08-07T05:06:01;14.60;99.00
35127;DHT22;21300;52.006;5.798;2023-08-07T05:08:27;14.70;99.00
35127;DHT22;21300;52.006;5.798;2023-08-07T05:10:53;14.60;98.90
35127;DHT22;21300;52.006;5.798;2023-08-07T05:13:18;14.60;98.90
35127;DHT22;21300;52.006;5.798;2023-08-07T05:15:46;14.70;98.80
35127;DHT22;21300;52.006;5.798;2023-08-07T05:18:12;14.70;98.80
35127;DHT22;21300;52.006;5.798;2023-08-07T05:20:37;14.70;98.80
35127;DHT22;21300;52.006;5.798;2023-08-07T05:23:03;14.70;99.10
35127;DHT22;21300;52.006;5.798;2023-08-07T05:25:28;14.70;98.70
35127;DHT22;21300;52.006;5.798;2023-08-07T05:27:54;14.70;98.70
35127;DHT22;21300;52.006;5.798;2023-08-07T05:30:19;14.70;98.60
35127;DHT22;21300;52.006;5.798;2023-08-07T05:32:45;14.70;98.60
35127;DHT22;21300;52.006;5.798;2023-08-07T05:35:10;14.70;98.60
35127;DHT22;21300;52.006;5.798;2023-08-07T05:37:36;14.70;98.60
35127;DHT22;21300;52.006;5.798;2023-08-07T05:40:20;14.70;98.60
35127;DHT22;21300;52.006;5.798;2023-08-07T05:42:46;14.70;98.60
35127;DHT22;21300;52.006;5.798;2023-08-07T05:45:12;14.70;98.60
35127;DHT22;21300;52.006;5.798;2023-08-07T05:47:37;14.70;98.60
35127;DHT22;21300;52.006;5.798;2023-08-07T05:50:03;14.70;98.60
35127;DHT22;21300;52.006;5.798;2023-08-07T05:52:29;14.70;98.60
35127;DHT22;21300;52.006;5.798;2023-08-07T05:54:54;14.70;98.60
35127;DHT22;21300;52.006;5.798;2023-08-07T05:57:20;14.70;98.60
35127;DHT22;21300;52.006;5.798;2023-08-07T05:59:45;14.70;98.60
35127;DHT22;21300;52.006;5.798;2023-08-07T06:02:11;14.70;98.60
35127;DHT22;21300;52.006;5.798;2023-08-07T06:04:37;14.80;98.60
35127;DHT22;21300;52.006;5.798;2023-08-07T06:07:03;14.80;98.60
35127;DHT22;21300;52.006;5.798;2023-08-07T06:09:28;14.70;98.50
35127;DHT22;21300;52.006;5.798;2023-08-07T06:11:54;14.80;98.60
35127;DHT22;21300;52.006;5.798;2023-08-07T06:14:19;14.80;98.60
35127;DHT22;21300;52.006;5.798;2023-08-07T06:16:45;14.80;98.60
35127;DHT22;21300;52.006;5.798;2023-08-07T06:19:11;14.80;98.50
35127;DHT22;21300;52.006;5.798;2023-08-07T06:21:36;14.80;98.50
35127;DHT22;21300;52.006;5.798;2023-08-07T06:24:02;14.80;98.60
35127;DHT22;21300;52.006;5.798;2023-08-07T06:26:28;14.80;98.50
35127;DHT22;21300;52.006;5.798;2023-08-07T06:28:53;14.80;98.50
35127;DHT22;21300;52.006;5.798;2023-08-07T06:31:19;14.80;98.50
35127;DHT22;21300;52.006;5.798;2023-08-07T06:33:45;14.80;98.50
35127;DHT22;21300;52.006;5.798;2023-08-07T06:36:10;14.80;98.50
35127;DHT22;21300;52.006;5.798;2023-08-07T06:38:36;14.80;98.50
35127;DHT22;21300;52.006;5.798;2023-08-07T06:41:02;14.80;98.50
35127;DHT22;21300;52.006;5.798;2023-08-07T06:43:27;14.80;98.50
35127;DHT22;21300;52.006;5.798;2023-08-07T06:45:57;14.80;98.50
35127;DHT22;21300;52.006;5.798;2023-08-07T06:48:23;14.80;98.40
35127;DHT22;21300;52.006;5.798;2023-08-07T06:50:49;14.90;98.40
35127;DHT22;21300;52.006;5.798;2023-08-07T06:53:15;14.90;98.40
35127;DHT22;21300;52.006;5.798;2023-08-07T06:55:42;14.90;98.50
35127;DHT22;21300;52.006;5.798;2023-08-07T06:58:08;14.90;99.10
35127;DHT22;21300;52.006;5.798;2023-08-07T07:00:34;14.80;99.30
35127;DHT22;21300;52.006;5.798;2023-08-07T07:03:00;14.80;99.50
35127;DHT22;21300;52.006;5.798;2023-08-07T07:05:26;14.80;99.70
35127;DHT22;21300;52.006;5.798;2023-08-07T07:07:52;14.70;99.90
35127;DHT22;21300;52.006;5.798;2023-08-07T07:10:17;14.80;99.90
35127;DHT22;21300;52.006;5.798;2023-08-07T07:12:43;14.80;99.90
35127;DHT22;21300;52.006;5.798;2023-08-07T07:15:10;14.90;99.80
35127;DHT22;21300;52.006;5.798;2023-08-07T07:17:35;14.90;99.80
35127;DHT22;21300;52.006;5.798;2023-08-07T07:20:01;14.90;99.70
35127;DHT22;21300;52.006;5.798;2023-08-07T07:22:26;15.00;99.70
35127;DHT22;21300;52.006;5.798;2023-08-07T07:24:54;15.00;99.90
35127;DHT22;21300;52.006;5.798;2023-08-07T07:27:19;15.00;99.80
35127;DHT22;21300;52.006;5.798;2023-08-07T07:29:45;15.00;99.80
35127;DHT22;21300;52.006;5.798;2023-08-07T07:32:11;15.00;99.80
35127;DHT22;21300;52.006;5.798;2023-08-07T07:34:36;15.10;99.70
35127;DHT22;21300;52.006;5.798;2023-08-07T07:37:02;15.10;99.60
35127;DHT22;21300;52.006;5.798;2023-08-07T07:39:27;15.10;99.70
35127;DHT22;21300;52.006;5.798;2023-08-07T07:41:53;15.10;99.80
35127;DHT22;21300;52.006;5.798;2023-08-07T07:44:18;15.20;99.70
35127;DHT22;21300;52.006;5.798;2023-08-07T07:46:44;15.20;99.70
35127;DHT22;21300;52.006;5.798;2023-08-07T07:49:09;15.10;99.70
35127;DHT22;21300;52.006;5.798;2023-08-07T07:51:35;15.10;99.70
35127;DHT22;21300;52.006;5.798;2023-08-07T07:54:02;15.10;99.80
35127;DHT22;21300;52.006;5.798;2023-08-07T07:56:28;15.20;99.70
35127;DHT22;21300;52.006;5.798;2023-08-07T07:58:53;15.20;99.60
35127;DHT22;21300;52.006;5.798;2023-08-07T08:01:19;15.20;99.50
35127;DHT22;21300;52.006;5.798;2023-08-07T08:03:44;15.30;99.20
35127;DHT22;21300;52.006;5.798;2023-08-07T08:06:13;15.30;99.20
35127;DHT22;21300;52.006;5.798;2023-08-07T08:08:39;15.30;99.00
35127;DHT22;21300;52.006;5.798;2023-08-07T08:11:04;15.30;99.00
35127;DHT22;21300;52.006;5.798;2023-08-07T08:13:30;15.40;98.90
35127;DHT22;21300;52.006;5.798;2023-08-07T08:15:56;15.40;98.90
35127;DHT22;21300;52.006;5.798;2023-08-07T08:18:21;15.40;98.80
35127;DHT22;21300;52.006;5.798;2023-08-07T08:20:47;15.40;98.80
35127;DHT22;21300;52.006;5.798;2023-08-07T08:23:12;15.50;98.80
35127;DHT22;21300;52.006;5.798;2023-08-07T08:25:38;15.50;98.70
35127;DHT22;21300;52.006;5.798;2023-08-07T08:28:03;15.50;98.70
35127;DHT22;21300;52.006;5.798;2023-08-07T08:30:29;15.60;98.60
35127;DHT22;21300;52.006;5.798;2023-08-07T08:32:55;15.60;98.60
35127;DHT22;21300;52.006;5.798;2023-08-07T08:35:21;15.60;98.40
35127;DHT22;21300;52.006;5.798;2023-08-07T08:37:46;15.70;97.90
35127;DHT22;21300;52.006;5.798;2023-08-07T08:40:12;15.70;98.10
35127;DHT22;21300;52.006;5.798;2023-08-07T08:42:40;15.70;98.10
35127;DHT22;21300;52.006;5.798;2023-08-07T08:45:09;15.70;98.20
35127;DHT22;21300;52.006;5.798;2023-08-07T08:47:37;15.70;98.30
35127;DHT22;21300;52.006;5.798;2023-08-07T08:50:08;15.70;98.40
35127;DHT22;21300;52.006;5.798;2023-08-07T08:52:35;15.80;98.30
35127;DHT22;21300;52.006;5.798;2023-08-07T08:55:02;15.80;98.30
35127;DHT22;21300;52.006;5.798;2023-08-07T08:57:28;15.80;98.40
35127;DHT22;21300;52.006;5.798;2023-08-07T08:59:56;15.80;98.30
35127;DHT22;21300;52.006;5.798;2023-08-07T09:02:22;15.90;98.40
35127;DHT22;21300;52.006;5.798;2023-08-07T09:04:48;15.90;98.40
35127;DHT22;21300;52.006;5.798;2023-08-07T09:07:15;15.90;98.40
35127;DHT22;21300;52.006;5.798;2023-08-07T09:09:44;16.00;98.30
35127;DHT22;21300;52.006;5.798;2023-08-07T09:12:19;16.00;98.30
35127;DHT22;21300;52.006;5.798;2023-08-07T09:14:49;16.00;98.30
35127;DHT22;21300;52.006;5.798;2023-08-07T09:17:17;16.00;98.30
35127;DHT22;21300;52.006;5.798;2023-08-07T09:19:43;16.00;98.30
35127;DHT22;21300;52.006;5.798;2023-08-07T09:22:09;16.10;98.20
35127;DHT22;21300;52.006;5.798;2023-08-07T09:24:35;16.00;97.40
35127;DHT22;21300;52.006;5.798;2023-08-07T09:27:00;16.10;98.00
35127;DHT22;21300;52.006;5.798;2023-08-07T09:29:26;16.10;98.10
35127;DHT22;21300;52.006;5.798;2023-08-07T09:31:54;16.10;98.10
35127;DHT22;21300;52.006;5.798;2023-08-07T09:34:20;16.10;98.10
35127;DHT22;21300;52.006;5.798;2023-08-07T09:36:46;16.10;98.10
35127;DHT22;21300;52.006;5.798;2023-08-07T09:39:11;16.20;98.10
35127;DHT22;21300;52.006;5.798;2023-08-07T09:41:37;16.20;98.10
35127;DHT22;21300;52.006;5.798;2023-08-07T09:44:07;16.20;98.10
35127;DHT22;21300;52.006;5.798;2023-08-07T09:46:43;16.20;98.00
35127;DHT22;21300;52.006;5.798;2023-08-07T09:49:09;16.30;97.50
35127;DHT22;21300;52.006;5.798;2023-08-07T09:51:47;16.30;97.40
35127;DHT22;21300;52.006;5.798;2023-08-07T09:54:15;16.30;96.40
35127;DHT22;21300;52.006;5.798;2023-08-07T09:56:41;16.30;97.20
35127;DHT22;21300;52.006;5.798;2023-08-07T09:59:07;16.30;97.30
35127;DHT22;21300;52.006;5.798;2023-08-07T10:01:36;16.40;97.00
35127;DHT22;21300;52.006;5.798;2023-08-07T10:04:02;16.40;97.10
35127;DHT22;21300;52.006;5.798;2023-08-07T10:06:28;16.50;97.20
35127;DHT22;21300;52.006;5.798;2023-08-07T10:08:54;16.50;97.20
35127;DHT22;21300;52.006;5.798;2023-08-07T10:11:21;16.50;97.40
35127;DHT22;21300;52.006;5.798;2023-08-07T10:13:48;16.50;97.40
35127;DHT22;21300;52.006;5.798;2023-08-07T10:16:14;16.60;97.40
35127;DHT22;21300;52.006;5.798;2023-08-07T10:18:39;16.60;97.50
35127;DHT22;21300;52.006;5.798;2023-08-07T10:21:06;16.60;97.50
35127;DHT22;21300;52.006;5.798;2023-08-07T10:23:35;16.70;97.50
35127;DHT22;21300;52.006;5.798;2023-08-07T10:26:06;16.70;97.70
35127;DHT22;21300;52.006;5.798;2023-08-07T10:28:37;16.70;97.50
35127;DHT22;21300;52.006;5.798;2023-08-07T10:31:06;16.80;97.40
35127;DHT22;21300;52.006;5.798;2023-08-07T10:33:32;16.80;97.40
35127;DHT22;21300;52.006;5.798;2023-08-07T10:35:58;16.90;97.40
35127;DHT22;21300;52.006;5.798;2023-08-07T10:38:29;16.90;97.50
35127;DHT22;21300;52.006;5.798;2023-08-07T10:40:59;16.90;97.40
35127;DHT22;21300;52.006;5.798;2023-08-07T10:43:26;17.00;97.40
35127;DHT22;21300;52.006;5.798;2023-08-07T10:45:53;17.00;97.30
35127;DHT22;21300;52.006;5.798;2023-08-07T10:48:21;17.00;97.40
35127;DHT22;21300;52.006;5.798;2023-08-07T10:50:57;17.00;97.40
35127;DHT22;21300;52.006;5.798;2023-08-07T10:53:42;17.10;97.40
35127;DHT22;21300;52.006;5.798;2023-08-07T10:56:32;17.10;97.30
35127;DHT22;21300;52.006;5.798;2023-08-07T10:59:10;17.10;97.30
35127;DHT22;21300;52.006;5.798;2023-08-07T11:04:07;17.20;97.30
35127;DHT22;21300;52.006;5.798;2023-08-07T11:06:33;17.20;97.40
35127;DHT22;21300;52.006;5.798;2023-08-07T11:09:00;17.20;97.40
35127;DHT22;21300;52.006;5.798;2023-08-07T11:11:29;17.30;97.40
35127;DHT22;21300;52.006;5.798;2023-08-07T11:13:54;17.30;97.50
35127;DHT22;21300;52.006;5.798;2023-08-07T11:16:20;17.30;97.40
35127;DHT22;21300;52.006;5.798;2023-08-07T11:18:47;17.30;97.40
35127;DHT22;21300;52.006;5.798;2023-08-07T11:21:13;17.40;97.40
35127;DHT22;21300;52.006;5.798;2023-08-07T11:23:39;17.40;97.40
35127;DHT22;21300;52.006;5.798;2023-08-07T11:26:06;17.40;97.40
35127;DHT22;21300;52.006;5.798;2023-08-07T11:28:32;17.40;96.00
35127;DHT22;21300;52.006;5.798;2023-08-07T11:30:58;17.40;96.20
35127;DHT22;21300;52.006;5.798;2023-08-07T11:33:25;17.50;96.60
35127;DHT22;21300;52.006;5.798;2023-08-07T11:35:51;17.50;96.80
35127;DHT22;21300;52.006;5.798;2023-08-07T11:38:34;17.50;96.90
35127;DHT22;21300;52.006;5.798;2023-08-07T11:41:01;17.60;96.90
35127;DHT22;21300;52.006;5.798;2023-08-07T11:43:28;17.60;96.90
35127;DHT22;21300;52.006;5.798;2023-08-07T11:45:56;17.60;96.90
35127;DHT22;21300;52.006;5.798;2023-08-07T11:48:27;17.60;96.90
35127;DHT22;21300;52.006;5.798;2023-08-07T11:50:53;17.70;97.00
35127;DHT22;21300;52.006;5.798;2023-08-07T11:53:21;17.70;96.80
35127;DHT22;21300;52.006;5.798;2023-08-07T11:55:51;17.70;96.90
35127;DHT22;21300;52.006;5.798;2023-08-07T11:58:17;17.80;96.90
35127;DHT22;21300;52.006;5.798;2023-08-07T12:00:43;17.80;96.80
35127;DHT22;21300;52.006;5.798;2023-08-07T12:03:25;17.90;96.80
35127;DHT22;21300;52.006;5.798;2023-08-07T12:05:53;17.90;96.90
35127;DHT22;21300;52.006;5.798;2023-08-07T12:08:19;17.90;96.80
35127;DHT22;21300;52.006;5.798;2023-08-07T12:10:48;18.00;96.80
35127;DHT22;21300;52.006;5.798;2023-08-07T12:13:13;18.00;96.90
35127;DHT22;21300;52.006;5.798;2023-08-07T12:15:39;18.00;96.80
35127;DHT22;21300;52.006;5.798;2023-08-07T12:18:07;18.10;96.90
35127;DHT22;21300;52.006;5.798;2023-08-07T12:20:33;18.10;96.60
35127;DHT22;21300;52.006;5.798;2023-08-07T12:22:58;18.20;96.60
35127;DHT22;21300;52.006;5.798;2023-08-07T12:25:24;18.20;96.70
35127;DHT22;21300;52.006;5.798;2023-08-07T12:27:49;18.20;96.70
35127;DHT22;21300;52.006;5.798;2023-08-07T12:30:15;18.30;96.70
35127;DHT22;21300;52.006;5.798;2023-08-07T12:32:41;18.30;96.60
35127;DHT22;21300;52.006;5.798;2023-08-07T12:35:07;18.30;96.60
35127;DHT22;21300;52.006;5.798;2023-08-07T12:37:36;18.40;96.60
35127;DHT22;21300;52.006;5.798;2023-08-07T12:40:01;18.40;96.60
35127;DHT22;21300;52.006;5.798;2023-08-07T12:42:28;18.40;96.50
35127;DHT22;21300;52.006;5.798;2023-08-07T12:44:55;18.50;96.60
35127;DHT22;21300;52.006;5.798;2023-08-07T12:47:20;18.50;96.50
35127;DHT22;21300;52.006;5.798;2023-08-07T12:49:46;18.50;96.40
35127;DHT22;21300;52.006;5.798;2023-08-07T12:52:13;18.60;96.40
35127;DHT22;21300;52.006;5.798;2023-08-07T12:54:38;18.60;96.40
35127;DHT22;21300;52.006;5.798;2023-08-07T12:57:04;18.60;96.30
35127;DHT22;21300;52.006;5.798;2023-08-07T12:59:29;18.70;96.30
35127;DHT22;21300;52.006;5.798;2023-08-07T13:01:56;18.70;96.30
35127;DHT22;21300;52.006;5.798;2023-08-07T13:04:21;18.80;96.20
35127;DHT22;21300;52.006;5.798;2023-08-07T13:06:47;18.70;96.00
35127;DHT22;21300;52.006;5.798;2023-08-07T13:09:14;18.80;96.20
35127;DHT22;21300;52.006;5.798;2023-08-07T13:11:40;18.80;96.00
35127;DHT22;21300;52.006;5.798;2023-08-07T13:14:05;18.90;96.50
35127;DHT22;21300;52.006;5.798;2023-08-07T13:16:31;18.90;96.00
35127;DHT22;21300;52.006;5.798;2023-08-07T13:18:57;18.90;95.90
35127;DHT22;21300;52.006;5.798;2023-08-07T13:21:22;18.90;95.70
35127;DHT22;21300;52.006;5.798;2023-08-07T13:23:48;19.00;95.80
35127;DHT22;21300;52.006;5.798;2023-08-07T13:26:14;19.00;95.70
35127;DHT22;21300;52.006;5.798;2023-08-07T13:28:41;19.00;95.70
35127;DHT22;21300;52.006;5.798;2023-08-07T13:31:06;19.00;95.60
35127;DHT22;21300;52.006;5.798;2023-08-07T13:33:32;19.00;91.00
35127;DHT22;21300;52.006;5.798;2023-08-07T13:35:58;18.90;91.80
35127;DHT22;21300;52.006;5.798;2023-08-07T13:38:23;18.90;88.10
35127;DHT22;21300;52.006;5.798;2023-08-07T13:40:49;18.90;88.80
35127;DHT22;21300;52.006;5.798;2023-08-07T13:43:16;18.80;88.10
35127;DHT22;21300;52.006;5.798;2023-08-07T13:45:41;18.70;85.40
35127;DHT22;21300;52.006;5.798;2023-08-07T13:48:07;18.80;85.60
35127;DHT22;21300;52.006;5.798;2023-08-07T13:50:34;18.70;86.30
35127;DHT22;21300;52.006;5.798;2023-08-07T13:53:00;18.80;85.60
35127;DHT22;21300;52.006;5.798;2023-08-07T13:55:26;18.70;86.80
35127;DHT22;21300;52.006;5.798;2023-08-07T13:57:51;18.80;90.40
35127;DHT22;21300;52.006;5.798;2023-08-07T14:00:17;18.90;91.10
35127;DHT22;21300;52.006;5.798;2023-08-07T14:02:43;18.90;91.00
35127;DHT22;21300;52.006;5.798;2023-08-07T14:05:08;19.00;91.60
35127;DHT22;21300;52.006;5.798;2023-08-07T14:07:34;19.00;91.80
35127;DHT22;21300;52.006;5.798;2023-08-07T14:09:59;19.00;91.70
35127;DHT22;21300;52.006;5.798;2023-08-07T14:12:25;19.10;91.90
35127;DHT22;21300;52.006;5.798;2023-08-07T14:14:51;19.00;91.90
35127;DHT22;21300;52.006;5.798;2023-08-07T14:17:16;19.00;92.00
35127;DHT22;21300;52.006;5.798;2023-08-07T14:19:42;19.10;91.90
35127;DHT22;21300;52.006;5.798;2023-08-07T14:22:07;19.10;92.00
35127;DHT22;21300;52.006;5.798;2023-08-07T14:24:33;19.10;92.10
35127;DHT22;21300;52.006;5.798;2023-08-07T14:26:58;19.10;92.20
35127;DHT22;21300;52.006;5.798;2023-08-07T14:29:24;19.10;92.10
35127;DHT22;21300;52.006;5.798;2023-08-07T14:31:50;19.10;89.60
35127;DHT22;21300;52.006;5.798;2023-08-07T14:34:16;19.10;90.80
35127;DHT22;21300;52.006;5.798;2023-08-07T14:36:41;19.10;90.80
35127;DHT22;21300;52.006;5.798;2023-08-07T14:39:07;19.10;91.00
35127;DHT22;21300;52.006;5.798;2023-08-07T14:41:32;19.10;91.10
35127;DHT22;21300;52.006;5.798;2023-08-07T14:43:58;19.10;91.20
35127;DHT22;21300;52.006;5.798;2023-08-07T14:46:23;19.20;91.10
35127;DHT22;21300;52.006;5.798;2023-08-07T14:48:49;19.20;91.20
35127;DHT22;21300;52.006;5.798;2023-08-07T14:51:15;19.20;91.30
35127;DHT22;21300;52.006;5.798;2023-08-07T14:53:40;19.20;91.10
35127;DHT22;21300;52.006;5.798;2023-08-07T14:56:06;19.20;91.10
35127;DHT22;21300;52.006;5.798;2023-08-07T14:58:33;19.20;91.20
35127;DHT22;21300;52.006;5.798;2023-08-07T15:00:59;19.20;91.40
35127;DHT22;21300;52.006;5.798;2023-08-07T15:03:25;19.20;91.20
35127;DHT22;21300;52.006;5.798;2023-08-07T15:05:50;19.20;91.30
35127;DHT22;21300;52.006;5.798;2023-08-07T15:08:16;19.20;91.20
35127;DHT22;21300;52.006;5.798;2023-08-07T15:10:42;19.20;91.20
35127;DHT22;21300;52.006;5.798;2023-08-07T15:13:07;19.20;91.20
35127;DHT22;21300;52.006;5.798;2023-08-07T15:15:33;19.20;91.20
35127;DHT22;21300;52.006;5.798;2023-08-07T15:17:58;19.20;91.40
35127;DHT22;21300;52.006;5.798;2023-08-07T15:20:26;19.20;91.30
35127;DHT22;21300;52.006;5.798;2023-08-07T15:22:52;19.20;91.30
35127;DHT22;21300;52.006;5.798;2023-08-07T15:25:18;19.30;91.30
35127;DHT22;21300;52.006;5.798;2023-08-07T15:27:43;19.20;91.30
35127;DHT22;21300;52.006;5.798;2023-08-07T15:30:09;19.20;91.40
35127;DHT22;21300;52.006;5.798;2023-08-07T15:32:35;19.20;91.30
35127;DHT22;21300;52.006;5.798;2023-08-07T15:35:01;19.20;91.40